createdAt,value
2019-02-12T00:02:20.813Z,69.11
2019-02-12T00:04:49.396Z,69.40
2019-02-12T00:07:18.024Z,68.37
2019-02-12T00:09:46.644Z,68.12
2019-02-12T00:12:15.277Z,67.92
2019-02-12T00:14:43.888Z,68.56
2019-02-12T00:17:12.516Z,68.72
2019-02-12T00:19:41.455Z,67.19
2019-02-12T00:22:10.104Z,66.57
2019-02-12T00:24:39.024Z,67.03
2019-02-12T00:27:07.667Z,66.41
2019-02-12T00:29:36.326Z,66.24
2019-02-12T00:32:04.958Z,66.67
2019-02-12T00:34:33.578Z,66.39
2019-02-12T00:37:02.551Z,66.75
2019-02-12T00:39:31.168Z,66.44
2019-02-12T00:41:59.796Z,66.88
2019-02-12T00:44:28.718Z,66.64
2019-02-12T00:46:57.335Z,65.98
2019-02-12T00:49:26.289Z,66.85
2019-02-12T00:51:55.175Z,67.25
2019-02-12T00:54:24.206Z,67.64
2019-02-12T00:56:52.693Z,67.55
2019-02-12T00:59:21.620Z,67.00
2019-02-12T01:01:50.621Z,67.61
2019-02-12T01:04:19.234Z,67.23
2019-02-12T01:06:47.889Z,66.94
2019-02-12T01:09:16.876Z,67.28
2019-02-12T01:11:45.517Z,67.33
2019-02-12T01:14:14.128Z,66.73
2019-02-12T01:16:42.763Z,67.00
2019-02-12T01:19:11.381Z,66.67
2019-02-12T01:21:40.013Z,66.88
2019-02-12T01:24:08.636Z,67.18
2019-02-12T01:26:37.273Z,66.69
2019-02-12T01:29:05.891Z,66.05
2019-02-12T01:31:34.859Z,66.21
2019-02-12T01:34:03.817Z,66.38
2019-02-12T01:36:32.807Z,66.55
2019-02-12T01:39:01.801Z,66.35
2019-02-12T01:41:30.792Z,64.77
2019-02-12T01:43:59.682Z,64.88
2019-02-12T01:46:28.314Z,64.08
2019-02-12T01:48:56.944Z,63.86
2019-02-12T01:51:25.583Z,63.94
2019-02-12T01:53:54.214Z,63.47
2019-02-12T01:56:22.858Z,62.79
2019-02-12T01:58:51.470Z,63.35
2019-02-12T02:01:20.147Z,63.66
2019-02-12T02:03:48.782Z,63.75
2019-02-12T02:06:17.390Z,62.95
2019-02-12T02:08:46.007Z,63.38
2019-02-12T02:11:14.638Z,62.94
2019-02-12T02:13:43.272Z,63.07
2019-02-12T02:16:11.941Z,63.27
2019-02-12T02:18:40.850Z,63.67
2019-02-12T02:21:09.491Z,63.61
2019-02-12T02:23:38.419Z,64.22
2019-02-12T02:26:07.042Z,63.16
2019-02-12T02:28:36.000Z,63.60
2019-02-12T02:31:04.642Z,63.71
2019-02-12T02:33:33.557Z,63.39
2019-02-12T02:36:02.188Z,64.43
2019-02-12T02:38:30.872Z,64.57
2019-02-12T02:40:59.430Z,64.60
2019-02-12T02:43:28.059Z,65.07
2019-02-12T02:45:56.673Z,64.59
2019-02-12T02:48:25.301Z,64.88
2019-02-12T02:50:53.906Z,64.56
2019-02-12T02:53:22.765Z,64.68
2019-02-12T02:55:51.399Z,64.93
2019-02-12T02:58:20.034Z,65.05
2019-02-12T03:00:48.655Z,64.73
2019-02-12T03:03:17.553Z,65.13
2019-02-12T03:05:46.480Z,65.72
2019-02-12T03:08:15.140Z,65.76
2019-02-12T03:10:43.740Z,66.28
2019-02-12T03:13:12.361Z,66.42
2019-02-12T03:15:40.980Z,66.77
2019-02-12T03:18:09.607Z,67.05
2019-02-12T03:20:38.230Z,67.56
2019-02-12T03:23:06.850Z,67.84
2019-02-12T03:25:35.506Z,67.65
2019-02-12T03:28:04.104Z,67.91
2019-02-12T03:30:32.726Z,68.18
2019-02-12T03:33:01.361Z,67.83
2019-02-12T03:35:29.972Z,67.74
2019-02-12T03:37:58.611Z,67.70
2019-02-12T03:40:27.208Z,67.85
2019-02-12T03:42:56.202Z,68.05
2019-02-12T03:45:24.832Z,68.29
2019-02-12T03:47:53.461Z,67.70
2019-02-12T03:50:22.079Z,67.86
2019-02-12T03:52:50.709Z,68.28
2019-02-12T03:55:19.328Z,67.73
2019-02-12T03:57:47.954Z,68.13
2019-02-12T04:00:16.859Z,68.15
2019-02-12T04:05:45.561Z,67.08
2019-02-12T04:08:14.188Z,66.64
2019-02-12T04:10:42.798Z,66.54
2019-02-12T04:13:11.424Z,66.29
2019-02-12T04:15:40.033Z,65.90
2019-02-12T04:18:08.676Z,65.75
2019-02-12T04:20:37.299Z,66.27
2019-02-12T04:23:06.265Z,66.38
2019-02-12T04:25:34.888Z,65.98
2019-02-12T04:28:03.498Z,66.32
2019-02-12T04:30:32.116Z,66.60
2019-02-12T04:33:00.747Z,67.00
2019-02-12T04:35:29.373Z,66.28
2019-02-12T04:37:58.027Z,66.79
2019-02-12T04:40:26.643Z,66.68
2019-02-12T04:42:55.530Z,66.99
2019-02-12T04:45:24.165Z,67.26
2019-02-12T04:47:52.790Z,67.02
2019-02-12T04:50:21.412Z,67.05
2019-02-12T04:52:50.048Z,67.93
2019-02-12T04:55:18.653Z,68.21
2019-02-12T04:57:47.645Z,68.64
2019-02-12T05:00:16.398Z,69.17
2019-02-12T05:02:44.915Z,69.66
2019-02-12T05:05:13.539Z,69.24
2019-02-12T05:07:42.204Z,69.22
2019-02-12T05:10:14.036Z,69.82
2019-02-12T05:12:42.652Z,69.85
2019-02-12T05:15:11.604Z,69.93
2019-02-12T05:17:40.195Z,69.63
2019-02-12T05:20:08.848Z,70.10
2019-02-12T05:22:43.599Z,70.48
2019-02-12T05:25:06.102Z,70.79
2019-02-12T05:27:35.022Z,71.04
2019-02-12T05:30:03.651Z,71.35
2019-02-12T05:32:32.288Z,71.02
2019-02-12T05:35:01.269Z,71.11
2019-02-12T05:37:29.898Z,71.08
2019-02-12T05:39:58.515Z,71.10
2019-02-12T05:42:27.139Z,71.34
2019-02-12T05:44:56.029Z,71.73
2019-02-12T05:47:24.999Z,71.73
2019-02-12T05:49:53.628Z,71.59
2019-02-12T05:52:22.240Z,71.71
2019-02-12T05:54:50.866Z,72.45
2019-02-12T05:57:19.477Z,72.00
2019-02-12T05:59:48.086Z,71.30
2019-02-12T06:02:16.705Z,71.24
2019-02-12T06:04:45.336Z,71.74
2019-02-12T06:07:13.945Z,72.04
2019-02-12T06:09:42.575Z,72.37
2019-02-12T06:12:11.181Z,72.49
2019-02-12T06:14:39.791Z,72.66
2019-02-12T06:17:08.395Z,73.04
2019-02-12T06:19:37.019Z,73.02
2019-02-12T06:22:05.640Z,73.27
2019-02-12T06:24:34.274Z,73.26
2019-02-12T06:27:02.885Z,73.23
2019-02-12T06:29:31.514Z,73.58
2019-02-12T06:32:00.497Z,73.39
2019-02-12T06:34:29.145Z,74.25
2019-02-12T06:36:57.743Z,75.00
2019-02-12T06:39:26.662Z,75.74
2019-02-12T06:41:55.261Z,75.82
2019-02-12T06:44:23.886Z,76.07
2019-02-12T06:46:52.497Z,76.52
2019-02-12T06:49:21.143Z,75.75
2019-02-12T06:51:49.762Z,76.18
2019-02-12T06:54:18.376Z,76.64
2019-02-12T06:56:46.981Z,76.94
2019-02-12T06:59:15.602Z,77.80
2019-02-12T07:01:44.493Z,78.37
2019-02-12T07:04:13.121Z,79.03
2019-02-12T07:09:31.960Z,79.75
2019-02-12T07:14:51.081Z,80.15
2019-02-12T07:23:41.253Z,80.17
2019-02-12T07:26:48.030Z,80.29
2019-02-12T07:29:32.088Z,80.27
2019-02-12T07:32:31.994Z,80.51
2019-02-12T07:35:03.363Z,80.97
2019-02-12T07:37:37.755Z,81.09
2019-02-12T07:43:15.801Z,81.18
2019-02-12T07:51:28.433Z,81.55
2019-02-12T07:57:31.113Z,81.97
2019-02-12T07:59:59.762Z,82.08
2019-02-12T08:02:43.769Z,82.91
2019-02-12T08:05:18.383Z,83.28
2019-02-12T08:08:12.237Z,83.15
2019-02-12T08:13:30.967Z,84.28
2019-02-12T08:16:18.387Z,84.66
2019-02-12T08:18:56.197Z,85.55
2019-02-12T08:21:33.749Z,85.51
2019-02-12T08:32:53.312Z,84.78
2019-02-12T08:38:30.350Z,84.35
2019-02-12T08:41:17.696Z,84.20
2019-02-12T08:47:20.525Z,83.42
2019-02-12T08:50:13.910Z,83.09
2019-02-12T08:53:20.257Z,82.85
2019-02-12T09:01:48.704Z,81.31
2019-02-12T09:04:32.688Z,80.83
2019-02-12T09:07:07.292Z,80.42
2019-02-12T09:09:57.689Z,79.85
2019-02-12T09:12:26.795Z,79.65
2019-02-12T09:15:16.736Z,79.70
2019-02-12T09:17:51.638Z,79.79
2019-02-12T09:20:26.797Z,80.37
2019-02-12T09:23:04.692Z,80.36
2019-02-12T09:28:15.080Z,80.07
2019-02-12T09:34:05.107Z,79.68
2019-02-12T09:36:45.869Z,80.17
2019-02-12T09:39:35.980Z,80.10
2019-02-12T09:50:39.785Z,79.84
2019-02-12T09:53:33.293Z,79.68
2019-02-12T09:56:10.929Z,79.04
2019-02-12T09:58:51.707Z,79.23
2019-02-12T10:04:13.674Z,79.04
2019-02-12T10:07:00.524Z,79.24
2019-02-12T10:12:10.502Z,79.55
2019-02-12T10:14:54.229Z,79.17
2019-02-12T10:17:25.602Z,80.02
2019-02-12T10:22:56.891Z,80.28
2019-02-12T10:25:25.516Z,81.54
2019-02-12T10:33:39.654Z,82.78
2019-02-12T10:36:08.268Z,82.76
2019-02-12T10:38:36.902Z,82.58
2019-02-12T10:41:05.523Z,82.63
2019-02-12T10:43:34.139Z,82.15
2019-02-12T10:46:02.753Z,81.13
2019-02-12T10:48:31.389Z,80.28
2019-02-12T10:51:00.005Z,79.39
2019-02-12T10:53:29.644Z,79.28
2019-02-12T10:55:57.238Z,79.25
2019-02-12T10:58:25.892Z,80.50
2019-02-12T11:00:54.488Z,81.93
2019-02-12T11:03:23.430Z,82.34
2019-02-12T11:05:52.034Z,83.15
2019-02-12T11:08:20.652Z,83.06
2019-02-12T11:10:49.268Z,83.19
2019-02-12T11:13:17.905Z,83.19
2019-02-12T11:15:46.529Z,83.32
2019-02-12T11:18:15.148Z,82.74
2019-02-12T11:20:43.770Z,82.81
2019-02-12T11:23:12.408Z,82.94
2019-02-12T11:25:41.381Z,82.86
2019-02-12T11:28:10.048Z,83.02
2019-02-12T11:30:38.681Z,81.58
2019-02-12T11:33:07.347Z,80.61
2019-02-12T11:35:36.959Z,80.47
2019-02-12T11:38:04.615Z,79.20
2019-02-12T11:40:33.240Z,78.56
2019-02-12T11:43:01.872Z,78.52
2019-02-12T11:45:30.480Z,77.91
2019-02-12T11:47:59.100Z,78.41
2019-02-12T11:50:27.714Z,78.15
2019-02-12T11:52:56.323Z,76.50
2019-02-12T11:55:24.954Z,76.81
2019-02-12T11:57:53.572Z,76.76
2019-02-12T12:00:22.193Z,76.62
2019-02-12T12:02:51.136Z,77.62
2019-02-12T12:05:19.754Z,78.90
2019-02-12T12:07:48.357Z,80.56
2019-02-12T12:10:16.976Z,81.10
2019-02-12T12:12:45.971Z,81.24
2019-02-12T12:15:14.963Z,81.63
2019-02-12T12:17:43.593Z,80.79
2019-02-12T12:20:15.173Z,79.85
2019-02-12T12:22:43.834Z,79.42
2019-02-12T12:25:12.441Z,79.26
2019-02-12T12:27:41.084Z,79.22
2019-02-12T12:30:10.039Z,77.84
2019-02-12T12:32:38.701Z,78.32
2019-02-12T12:35:07.332Z,76.67
2019-02-12T12:37:35.939Z,76.24
2019-02-12T12:40:04.568Z,76.14
2019-02-12T12:42:33.215Z,74.55
2019-02-12T12:45:01.830Z,75.05
2019-02-12T12:47:30.465Z,74.08
2019-02-12T12:49:59.273Z,74.59
2019-02-12T12:52:27.707Z,74.19
2019-02-12T12:54:59.883Z,74.66
2019-02-12T12:57:24.916Z,73.52
2019-02-12T12:59:53.594Z,73.39
2019-02-12T13:02:22.157Z,72.54
2019-02-12T13:04:50.788Z,72.12
2019-02-12T13:07:19.396Z,71.50
2019-02-12T13:09:48.033Z,71.74
2019-02-12T13:12:16.671Z,70.96
2019-02-12T13:14:45.305Z,71.18
2019-02-12T13:17:13.936Z,71.17
2019-02-12T13:19:42.569Z,71.43
2019-02-12T13:22:11.481Z,71.44
2019-02-12T13:24:41.749Z,71.62
2019-02-12T13:27:09.397Z,72.10
2019-02-12T13:29:38.023Z,72.08
2019-02-12T13:32:06.660Z,72.27
2019-02-12T13:34:35.296Z,72.88
2019-02-12T13:37:04.189Z,72.46
2019-02-12T13:39:33.074Z,72.38
2019-02-12T13:42:01.976Z,73.25
2019-02-12T13:44:30.958Z,73.54
2019-02-12T13:46:59.960Z,73.05
2019-02-12T13:49:28.582Z,73.02
2019-02-12T13:51:57.182Z,73.53
2019-02-12T13:54:25.797Z,74.37
2019-02-12T13:56:54.413Z,74.78
2019-02-12T13:59:23.048Z,74.89
2019-02-12T14:01:51.669Z,75.02
2019-02-12T14:04:20.307Z,75.57
2019-02-12T14:06:48.914Z,75.66
2019-02-12T14:09:17.549Z,75.27
2019-02-12T14:11:46.488Z,75.50
2019-02-12T14:14:15.123Z,75.63
2019-02-12T14:16:43.722Z,75.05
2019-02-12T14:19:12.641Z,75.00
2019-02-12T14:21:41.273Z,75.18
2019-02-12T14:24:09.919Z,74.99
2019-02-12T14:26:38.525Z,74.63
2019-02-12T14:29:07.223Z,74.19
2019-02-12T14:31:35.773Z,74.57
2019-02-12T14:34:04.403Z,73.82
2019-02-12T14:36:33.022Z,74.26
2019-02-12T14:39:02.015Z,74.70
2019-02-12T14:41:30.613Z,74.19
2019-02-12T14:43:59.246Z,73.63
2019-02-12T14:46:27.865Z,74.49
2019-02-12T14:48:56.490Z,74.26
2019-02-12T14:51:25.101Z,74.22
2019-02-12T14:53:53.735Z,73.75
2019-02-12T14:56:22.692Z,73.39
2019-02-12T14:58:51.347Z,73.16
2019-02-12T15:01:19.967Z,72.40
2019-02-12T15:03:48.597Z,73.11
2019-02-12T15:06:17.536Z,72.77
2019-02-12T15:08:46.185Z,72.59
2019-02-12T15:11:14.805Z,72.20
2019-02-12T15:13:43.796Z,71.65
2019-02-12T15:16:12.403Z,70.51
2019-02-12T15:18:41.026Z,69.71
2019-02-12T15:21:09.652Z,70.05
2019-02-12T15:23:38.273Z,68.90
2019-02-12T15:26:06.903Z,68.96
2019-02-12T15:28:35.512Z,68.92
2019-02-12T15:31:04.133Z,69.05
2019-02-12T15:33:32.743Z,69.43
2019-02-12T15:36:01.732Z,70.14
2019-02-12T15:38:30.341Z,70.13
2019-02-12T15:40:58.969Z,70.39
2019-02-12T15:43:27.606Z,70.49
2019-02-12T15:45:56.237Z,71.32
2019-02-12T15:48:25.163Z,71.15
2019-02-12T15:50:53.786Z,71.12
2019-02-12T15:53:22.375Z,71.70
2019-02-12T15:55:51.638Z,72.14
2019-02-12T15:58:19.899Z,71.01
2019-02-12T16:00:48.538Z,71.24
2019-02-12T16:03:18.376Z,71.86
2019-02-12T16:05:45.772Z,71.85
2019-02-12T16:08:14.406Z,72.04
2019-02-12T16:10:43.319Z,72.80
2019-02-12T16:13:13.569Z,73.07
2019-02-12T16:15:41.518Z,73.26
2019-02-12T16:18:09.514Z,73.33
2019-02-12T16:20:38.121Z,73.04
2019-02-12T16:23:06.737Z,73.59
2019-02-12T16:25:35.366Z,73.84
2019-02-12T16:28:04.313Z,73.98
2019-02-12T16:30:32.935Z,73.97
2019-02-12T16:33:01.877Z,74.11
2019-02-12T16:35:30.523Z,74.12
2019-02-12T16:37:59.151Z,74.12
2019-02-12T16:40:27.789Z,74.25
2019-02-12T16:42:56.424Z,73.87
2019-02-12T16:45:37.002Z,74.28
2019-02-12T16:48:05.615Z,74.40
2019-02-12T16:50:34.346Z,74.73
2019-02-12T16:53:02.968Z,74.64
2019-02-12T16:55:31.588Z,74.64
2019-02-12T16:58:00.215Z,74.72
2019-02-12T17:00:28.849Z,74.62
2019-02-12T17:02:57.462Z,74.88
2019-02-12T17:05:26.078Z,74.50
2019-02-12T17:07:54.692Z,74.81
2019-02-12T17:10:23.601Z,75.08
2019-02-12T17:12:52.215Z,74.52
2019-02-12T17:15:20.838Z,74.52
2019-02-12T17:17:49.533Z,74.42
2019-02-12T17:20:18.170Z,73.86
2019-02-12T17:22:47.138Z,74.23
2019-02-12T17:25:15.772Z,73.88
2019-02-12T17:27:44.381Z,73.66
2019-02-12T17:32:54.335Z,73.93
2019-02-12T17:35:22.955Z,73.56
2019-02-12T17:37:51.561Z,74.28
2019-02-12T17:40:20.174Z,74.65
2019-02-12T17:42:48.794Z,74.88
2019-02-12T17:45:17.493Z,74.55
2019-02-12T17:47:46.128Z,74.53
2019-02-12T17:50:14.762Z,74.68
2019-02-12T17:52:43.388Z,74.41
2019-02-12T17:55:12.007Z,74.16
2019-02-12T17:57:40.616Z,74.14
2019-02-12T18:00:15.244Z,74.27
2019-02-12T18:02:43.872Z,74.66
2019-02-12T18:05:12.506Z,74.83
2019-02-12T18:07:41.107Z,75.12
2019-02-12T18:10:09.742Z,75.28
2019-02-12T18:12:38.343Z,75.11
2019-02-12T18:15:06.987Z,75.32
2019-02-12T18:17:35.591Z,74.26
2019-02-12T18:20:04.245Z,74.08
2019-02-12T18:22:32.875Z,73.76
2019-02-12T18:25:01.836Z,73.65
2019-02-12T18:27:30.509Z,73.51
2019-02-12T18:29:59.419Z,73.70
2019-02-12T18:32:28.068Z,73.54
2019-02-12T18:34:56.996Z,73.82
2019-02-12T18:37:26.014Z,73.48
2019-02-12T18:39:54.647Z,74.29
2019-02-12T18:42:23.548Z,74.46
2019-02-12T18:44:52.163Z,74.17
2019-02-12T18:47:20.789Z,74.00
2019-02-12T18:49:49.401Z,74.02
2019-02-12T18:52:18.027Z,74.04
2019-02-12T18:54:46.658Z,74.75
2019-02-12T18:57:15.271Z,74.99
2019-02-12T18:59:43.884Z,75.48
2019-02-12T19:02:12.500Z,75.50
2019-02-12T19:04:41.416Z,75.49
2019-02-12T19:07:10.041Z,75.38
2019-02-12T19:09:38.677Z,75.61
2019-02-12T19:12:07.313Z,75.73
2019-02-12T19:14:35.934Z,76.14
2019-02-12T19:17:04.581Z,76.21
2019-02-12T19:19:33.201Z,75.67
2019-02-12T19:22:02.191Z,76.08
2019-02-12T19:24:30.805Z,76.46
2019-02-12T19:26:59.767Z,76.41
2019-02-12T19:29:28.380Z,76.66
2019-02-12T19:31:59.291Z,75.93
2019-02-12T19:34:25.644Z,76.34
2019-02-12T19:36:54.604Z,76.21
2019-02-12T19:39:23.480Z,76.34
2019-02-12T19:41:52.120Z,76.32
2019-02-12T19:44:20.743Z,76.41
2019-02-12T19:46:49.352Z,76.42
2019-02-12T19:49:17.975Z,76.58
2019-02-12T19:51:46.603Z,76.71
2019-02-12T19:54:15.230Z,76.84
2019-02-12T19:56:43.837Z,76.75
2019-02-12T19:59:12.458Z,76.97
2019-02-12T20:01:41.338Z,77.42
2019-02-12T20:04:09.963Z,77.23
2019-02-12T20:06:38.558Z,77.22
2019-02-12T20:11:42.196Z,77.19
2019-02-12T20:14:10.814Z,77.71
2019-02-12T20:16:39.447Z,77.93
2019-02-12T20:19:08.063Z,78.14
2019-02-12T20:21:36.677Z,78.33
2019-02-12T20:24:05.313Z,78.58
2019-02-12T20:26:34.209Z,78.79
2019-02-12T20:29:02.836Z,79.22
2019-02-12T20:31:32.013Z,79.42
2019-02-12T20:34:00.372Z,79.58
2019-02-12T20:36:28.969Z,79.92
2019-02-12T20:38:57.654Z,79.80
2019-02-12T20:41:26.275Z,79.83
2019-02-12T20:43:55.215Z,79.85
2019-02-12T20:46:24.090Z,79.65
2019-02-12T20:48:52.729Z,79.96
2019-02-12T20:51:21.662Z,80.09
2019-02-12T20:53:50.563Z,80.08
2019-02-12T20:56:19.170Z,80.47
2019-02-12T20:58:47.794Z,80.82
2019-02-12T21:01:16.414Z,80.63
2019-02-12T21:03:45.084Z,80.62
2019-02-12T21:06:13.689Z,81.02
2019-02-12T21:08:42.310Z,81.43
2019-02-12T21:11:10.913Z,81.59
2019-02-12T21:13:39.537Z,81.63
2019-02-12T21:16:08.149Z,81.62
2019-02-12T21:18:36.776Z,81.75
2019-02-12T21:21:05.398Z,81.55
2019-02-12T21:23:34.025Z,81.73
2019-02-12T21:26:02.647Z,81.79
2019-02-12T21:28:31.261Z,81.87
2019-02-12T21:30:59.876Z,81.76
2019-02-12T21:33:28.509Z,81.89
2019-02-12T21:35:57.098Z,81.77
2019-02-12T21:38:26.678Z,81.70
2019-02-12T21:40:54.653Z,81.45
2019-02-12T21:43:23.278Z,81.50
2019-02-12T21:45:51.903Z,81.47
2019-02-12T21:48:20.546Z,81.40
2019-02-12T21:50:49.168Z,80.99
2019-02-12T21:53:17.780Z,81.27
2019-02-12T21:55:46.413Z,81.43
2019-02-12T21:58:15.014Z,81.36
2019-02-12T22:00:44.062Z,81.53
2019-02-12T22:03:12.618Z,81.44
2019-02-12T22:05:41.253Z,81.69
2019-02-12T22:08:09.873Z,81.47
2019-02-12T22:10:46.236Z,81.81
2019-02-12T22:13:07.468Z,81.76
2019-02-12T22:15:36.100Z,81.87
2019-02-12T22:18:04.719Z,81.93
2019-02-12T22:20:33.350Z,81.89
2019-02-12T22:23:02.258Z,81.51
2019-02-12T22:25:31.243Z,81.41
2019-02-12T22:27:59.868Z,81.05
2019-02-12T22:30:28.494Z,81.31
2019-02-12T22:32:57.121Z,81.72
2019-02-12T22:35:25.760Z,81.34
2019-02-12T22:37:54.362Z,81.21
2019-02-12T22:40:22.974Z,81.01
2019-02-12T22:42:51.587Z,80.98
2019-02-12T22:45:20.216Z,80.92
2019-02-12T22:47:48.827Z,80.90
2019-02-12T22:50:17.455Z,80.98
2019-02-12T22:52:46.358Z,81.00
2019-02-12T22:55:15.367Z,81.25
2019-02-12T22:57:49.247Z,81.19
2019-02-12T23:00:27.974Z,81.22
2019-02-12T23:02:56.877Z,81.60
2019-02-12T23:05:25.856Z,81.76
2019-02-12T23:07:54.475Z,82.03
2019-02-12T23:10:23.120Z,82.37
2019-02-12T23:12:51.724Z,82.37
2019-02-12T23:15:20.706Z,82.17
2019-02-12T23:17:49.369Z,82.54
2019-02-12T23:20:18.011Z,82.75
2019-02-12T23:22:46.620Z,82.75
2019-02-12T23:25:15.239Z,83.09
2019-02-12T23:27:44.224Z,83.25
2019-02-12T23:30:13.218Z,83.53
2019-02-12T23:32:41.845Z,83.35
2019-02-12T23:35:10.476Z,83.27
2019-02-12T23:37:39.111Z,83.13
2019-02-12T23:40:07.750Z,82.95
2019-02-12T23:42:36.366Z,82.79
2019-02-12T23:45:04.995Z,82.45
2019-02-12T23:47:33.899Z,82.79
2019-02-12T23:50:02.535Z,82.91
2019-02-12T23:52:31.156Z,82.87
2019-02-12T23:54:59.777Z,82.57
2019-02-12T23:57:28.642Z,82.42
2019-02-12T23:59:57.627Z,82.48
